• Join FlightAware (Why Join?)
  • Login
  • US Flag 
08:35PM EDT


 

Airport Tracker/Info


-or-


 

Live Flight TrackerFlight Track Log ✈ N812GJ ✈ 17-Jun-2013 ✈ KGSO - KSLC

Flight Track Log - Related Links

Times and Time Zones

All times are in EDT time to prevent confusion due to time zone crossing. See the N812GJ flight status page for this flight to view local times or setup timezone preferences in your user account.

Time Position Orientation Groundspeed Altitude Reporting Facility
EDT Latitude Longitude Course Direction KTS MPH feet Rate Location/Type
03:48PM 35.9428 -80.0275 308° West 231 266 8,200  Level Atlanta Center
03:49PM 35.8986 -80.0858 227° Southwest 236 272 10,400 2,400 Climbing Atlanta Center
03:50PM 35.9367 -80.1661 300° West 168 193 13,100 2,400 Climbing Atlanta Center
03:51PM 35.9703 -80.2442 298° West 203 234 15,300 2,040 Climbing Atlanta Center
03:52PM 36.4286 -80.5238 302° West  Level FlightAware Approximate
03:52PM 35.9961 -80.3300 290° West 235 270 17,200  Level Atlanta Center
03:53PM 36.4798 -80.6262 302° West  Level FlightAware Approximate
03:53PM 36.0233 -80.4086 293° West 268 308 19,100  Level Atlanta Center
03:54PM 36.5387 -80.7219 308° West  Level FlightAware Approximate
03:54PM 36.0508 -80.4972 291° West 274 315 21,000  Level Atlanta Center
03:55PM 36.0806 -80.5806 294° West 274 315 22,700 1,500 Climbing Atlanta Center
03:56PM 36.1144 -80.6819 293° West 279 321 24,100 1,260 Climbing Atlanta Center
03:57PM 36.1483 -80.7783 294° West 296 341 25,300 1,200 Climbing Atlanta Center
03:58PM 36.1825 -80.8797 293° West 311 358 26,600 1,440 Climbing Atlanta Center
03:59PM 36.2161 -80.9789 293° West 311 358 28,200 1,560 Climbing Atlanta Center
04:00PM 36.2500 -81.0781 293° West 306 352 29,800 1,380 Climbing Atlanta Center
04:01PM 36.2814 -81.1722 292° West 306 352 31,000 900 Climbing Atlanta Center
04:02PM 36.3128 -81.2714 291° West 306 352 31,700 660 Climbing Atlanta Center
04:03PM 36.3464 -81.3733 292° West 311 358 32,400 660 Climbing Atlanta Center
04:04PM 36.3819 -81.4806 292° West 322 371 33,100 660 Climbing Atlanta Center
04:05PM 36.4175 -81.5878 292° West 336 387 33,800 660 Climbing Atlanta Center
04:06PM 36.4553 -81.7003 293° West 350 403 34,500 900 Climbing Atlanta Center
04:07PM 36.4886 -81.8103 291° West 350 403 35,600 1,020 Climbing Atlanta Center
04:08PM 36.5239 -81.9153 293° West 345 397 36,600 1,080 Climbing Atlanta Center
04:09PM 36.5567 -82.0178 292° West 337 388 37,800 720 Climbing Atlanta Center
04:10PM 36.5875 -82.1153 292° West 317 365 38,100 120 Climbing Atlanta Center
04:11PM 36.6203 -82.2203 291° West 322 371 38,100  Level Atlanta Center
04:12PM 36.6575 -82.3308 293° West 332 382 38,100 180 Level Atlanta Center
04:13PM 36.6922 -82.4439 291° West 345 397 38,500 360 Climbing Atlanta Center
04:14PM 36.7100 -82.4956 293° West 349 402 38,700 540 Climbing Indianapolis Center
04:15PM 36.7450 -82.6069 291° West 344 396 39,400 600 Climbing Indianapolis Center
04:16PM 36.7792 -82.7153 292° West 338 389 40,000 300 Climbing Indianapolis Center
04:17PM 36.8122 -82.8239 291° West 333 383 40,100  Climbing Indianapolis Center
04:18PM 36.8506 -82.9372 293° West 347 399 40,100  Level Indianapolis Center
04:19PM 36.8861 -83.0578 290° West 352 405 40,100  Level Indianapolis Center
04:20PM 36.9286 -83.1933 291° West 358 412 40,100  Level Indianapolis Center
04:21PM 36.9653 -83.3117 291° West 363 418 40,100  Level Indianapolis Center
04:22PM 37.0022 -83.4303 291° West 366 421 40,100 -60 Level Indianapolis Center
04:23PM 37.0383 -83.5522 290° West 371 427 40,000  Descending Indianapolis Center
04:24PM 37.0756 -83.6744 291° West 374 430 40,100  Climbing Indianapolis Center
04:25PM 37.1128 -83.7958 291° West 375 432 40,100  Level Indianapolis Center
04:26PM 37.1558 -83.9403 291° West 377 434 40,100  Level Indianapolis Center
04:27PM 37.1931 -84.0614 291° West 375 432 40,100  Level Indianapolis Center
04:28PM 37.2294 -84.1819 291° West 370 426 40,100  Level Indianapolis Center
04:29PM 37.2647 -84.3033 290° West 369 425 40,100  Level Indianapolis Center
04:30PM 37.3000 -84.4208 291° West 360 414 40,100  Level Indianapolis Center
04:32PM 37.3347 -84.5394 290° West 362 417 40,100  Level Indianapolis Center
04:33PM 37.3697 -84.6561 291° West 356 410 40,100  Level Indianapolis Center
04:34PM 37.4094 -84.7944 290° West 359 413 40,100 180 Level Indianapolis Center
04:35PM 37.4431 -84.9128 290° West 358 412 40,500 420 Climbing Indianapolis Center
04:36PM 37.4769 -85.0256 291° West 348 400 41,000 240 Climbing Indianapolis Center
04:37PM 37.5089 -85.1381 290° West 342 394 41,100  Climbing Indianapolis Center
04:38PM 37.5417 -85.2525 290° West 347 399 41,100  Level Indianapolis Center
04:39PM 37.5753 -85.3714 290° West 359 413 41,100  Level Indianapolis Center
04:40PM 37.6158 -85.5053 291° West 352 405 41,100  Level Indianapolis Center
04:41PM 37.6511 -85.6111 293° West 349 402 41,100  Level Indianapolis Center
04:42PM 37.6842 -85.7272 290° West 350 403 41,100  Level Indianapolis Center
04:43PM 37.7147 -85.8456 288° West 352 405 41,100  Level Indianapolis Center
04:44PM 37.7442 -85.9664 287° West 357 411 41,100  Level Indianapolis Center
04:45PM 37.7781 -86.0850 290° West 356 410 41,100  Level Indianapolis Center
04:46PM 37.8192 -86.2275 290° West 361 415 41,100  Level Indianapolis Center
04:47PM 37.8519 -86.3475 289° West 361 415 41,100  Level Indianapolis Center
04:48PM 37.8836 -86.4669 289° West 356 410 41,100 -60 Level Indianapolis Center
04:50PM 37.9489 -86.7017 289° West 351 404 41,000  Descending Indianapolis Center
04:51PM 37.9803 -86.8192 289° West 349 402 41,100  Climbing Indianapolis Center
04:52PM 38.0128 -86.9381 289° West 352 405 41,100  Level Indianapolis Center
04:53PM 38.0447 -87.0561 289° West 350 403 41,100  Level Indianapolis Center
04:54PM 38.0761 -87.1739 289° West 348 400 41,100  Level Indianapolis Center
04:55PM 38.1094 -87.2969 289° West 350 403 41,100  Level Indianapolis Center
04:56PM 38.1400 -87.4125 289° West 354 407 41,100  Level Indianapolis Center
04:57PM 38.1703 -87.5339 288° West 356 410 41,100  Level Indianapolis Center
04:58PM 38.2081 -87.6767 289° West 353 406 41,100  Level Indianapolis Center
04:59PM 38.2408 -87.7944 290° West 351 404 41,100  Level Indianapolis Center
05:00PM 38.2714 -87.9147 288° West 354 407 41,100  Level Indianapolis Center
05:01PM 38.3014 -88.0344 288° West 355 409 41,100  Level Indianapolis Center
05:02PM 38.3331 -88.1525 289° West 351 404 41,100  Level Indianapolis Center
05:03PM 38.3625 -88.2719 287° West 352 405 41,100  Level Indianapolis Center
05:04PM 38.3939 -88.3936 288° West 357 411 41,100  Level Indianapolis Center
05:05PM 38.4250 -88.5158 288° West 361 415 41,100  Level Indianapolis Center
05:07PM 38.4558 -88.6378 288° West 361 415 41,100  Level Indianapolis Center
05:08PM 38.4939 -88.7856 288° West 362 417 41,100  Level Indianapolis Center
05:09PM 38.5231 -88.9075 287° West 360 414 41,100  Level Indianapolis Center
05:10PM 38.5542 -89.0314 288° West 364 419 41,100  Level Indianapolis Center
05:11PM 38.5847 -89.1553 288° West 363 418 41,100  Level Indianapolis Center
05:12PM 38.6150 -89.2797 287° West 365 420 41,100  Level Indianapolis Center
05:13PM 38.6517 -89.4294 287° West 357 411 41,100  Level Kansas City Center
05:14PM 38.6847 -89.5628 288° West 364 419 41,100  Level Kansas City Center
05:15PM 38.7128 -89.6758 288° West 366 421 41,100  Level Kansas City Center
05:16PM 38.7428 -89.7958 288° West 359 413 41,100  Level Kansas City Center
05:17PM 38.7719 -89.9167 287° West 357 411 41,100  Level Kansas City Center
05:18PM 38.8067 -90.0669 287° West 361 415 41,100  Level Kansas City Center
05:19PM 38.8358 -90.1903 287° West 361 415 41,100  Level Kansas City Center
05:20PM 38.8656 -90.3144 287° West 364 419 41,100  Level Kansas City Center
05:21PM 38.8944 -90.4392 287° West 365 420 41,100  Level Kansas City Center
05:22PM 38.9231 -90.5636 286° West 364 419 41,100  Level Kansas City Center
05:23PM 38.9547 -90.7006 287° West 361 415 41,100  Level Kansas City Center
05:24PM 38.9819 -90.8250 286° West 364 419 41,100  Level Kansas City Center
05:25PM 39.0097 -90.9481 286° West 362 417 41,100  Level Kansas City Center
05:26PM 39.0389 -91.0731 287° West 364 419 41,100  Level Kansas City Center
05:27PM 39.0672 -91.1972 286° West 364 419 41,100  Level Kansas City Center
05:28PM 39.1003 -91.3472 286° West 365 420 41,100  Level Kansas City Center
05:29PM 39.1283 -91.4725 286° West 364 419 41,100  Level Kansas City Center
05:30PM 39.1564 -91.5986 286° West 367 422 41,100  Level Kansas City Center
05:31PM 39.1869 -91.7386 286° West 366 421 41,100  Level Kansas City Center
05:33PM 39.2147 -91.8650 286° West 367 422 41,100  Level Kansas City Center
05:34PM 39.2419 -91.9914 286° West 366 421 41,100  Level Kansas City Center
05:35PM 39.2714 -92.1261 286° West 371 427 41,100  Level Kansas City Center
05:36PM 39.2992 -92.2486 286° West 364 419 41,100  Level Kansas City Center
05:37PM 39.3256 -92.3747 285° West 364 419 41,100  Level Kansas City Center
05:38PM 39.3531 -92.4997 286° West 364 419 41,100  Level Kansas City Center
05:39PM 39.3842 -92.6508 285° West 365 420 41,100  Level Kansas City Center
05:40PM 39.4125 -92.7769 286° West 365 420 41,100  Level Kansas City Center
05:41PM 39.4386 -92.9069 285° West 371 427 41,100  Level Kansas City Center
05:42PM 39.4661 -93.0369 285° West 374 430 41,100  Level Kansas City Center
05:43PM 39.4953 -93.1708 286° West 383 441 41,100  Level Kansas City Center
05:44PM 39.5267 -93.3233 285° West 371 427 41,100  Level Kansas City Center
05:45PM 39.5525 -93.4492 285° West 366 421 41,100  Level Kansas City Center
05:46PM 39.5786 -93.5794 285° West 371 427 41,100  Level Kansas City Center
05:47PM 39.6039 -93.7050 285° West 364 419 41,100  Level Kansas City Center
05:48PM 39.6294 -93.8406 284° West 363 418 41,100  Level Kansas City Center
05:50PM 39.6783 -94.0814 285° West 364 419 41,100  Level Minneapolis Center
05:51PM 39.7064 -94.2331 284° West 363 418 41,100  Level Minneapolis Center
05:52PM 39.7319 -94.3600 285° West 364 419 41,100  Level Minneapolis Center
05:53PM 39.7567 -94.4864 284° West 364 419 41,100  Level Minneapolis Center
05:54PM 39.7811 -94.6136 284° West 365 420 41,100  Level Minneapolis Center
05:55PM 39.8047 -94.7408 284° West 365 420 41,100  Level Minneapolis Center
05:56PM 39.8292 -94.8697 284° West 368 423 41,100  Level Minneapolis Center
05:57PM 39.8542 -94.9989 284° West 367 422 41,100  Level Kansas City Center
05:58PM 39.8814 -95.1425 284° West 368 423 41,100  Level Kansas City Center
05:59PM 39.9053 -95.2661 284° West 370 426 41,100  Level Kansas City Center
06:00PM 39.9322 -95.4111 284° West 370 426 41,100  Level Kansas City Center
06:01PM 39.9539 -95.5381 283° West 376 433 41,100  Level Kansas City Center
06:02PM 39.9814 -95.6831 284° West 372 428 41,100  Level Kansas City Center
06:03PM 40.0047 -95.8092 284° West 372 428 41,100  Level Kansas City Center
06:04PM 40.0297 -95.9592 282° West 377 434 41,100  Level Kansas City Center
06:05PM 40.0528 -96.0853 283° West 375 432 41,100  Level Kansas City Center
06:06PM 40.0769 -96.2231 283° West 378 435 41,100  Level Kansas City Center
06:07PM 40.1014 -96.3569 283° West 379 436 41,100  Level Kansas City Center
06:08PM 40.1072 -96.3833 286° West 377 434 41,100  Level Minneapolis Center
06:09PM 40.1308 -96.5167 283° West 377 434 41,100  Level Minneapolis Center
06:10PM 40.1586 -96.6767 283° West 375 432 41,100  Level Minneapolis Center
06:11PM 40.1822 -96.8097 283° West 375 432 41,100  Level Minneapolis Center
06:12PM 40.2050 -96.9422 283° West 374 430 41,100  Level Minneapolis Center
06:13PM 40.2272 -97.0744 282° West 373 429 41,100  Level Minneapolis Center
06:14PM 40.2497 -97.2081 282° West 374 430 41,100  Level Minneapolis Center
06:15PM 40.2711 -97.3356 282° West 372 428 41,100  Level Minneapolis Center
06:16PM 40.2981 -97.4956 283° West 375 432 41,100  Level Minneapolis Center
06:17PM 40.3197 -97.6289 282° West 373 429 41,100  Level Minneapolis Center
06:18PM 40.3422 -97.7619 283° West 374 430 41,100  Level Minneapolis Center
06:19PM 40.3633 -97.8956 282° West 374 430 41,100  Level Minneapolis Center
06:20PM 40.3839 -98.0283 282° West 373 429 41,100  Level Minneapolis Center
06:21PM 40.4053 -98.1617 282° West 372 428 41,100  Level Minneapolis Center
06:22PM 40.4275 -98.2953 282° West 374 430 41,100  Level Minneapolis Center
06:23PM 40.4475 -98.4289 281° West 373 429 41,100  Level Minneapolis Center
06:24PM 40.4725 -98.5906 282° West 375 432 41,100  Level Minneapolis Center
06:25PM 40.4922 -98.7239 281° West 373 429 41,100  Level Minneapolis Center
06:26PM 40.5136 -98.8581 282° West 372 428 41,100  Level Minneapolis Center
06:27PM 40.5339 -98.9928 281° West 374 430 41,100  Level Minneapolis Center
06:28PM 40.5544 -99.1278 281° West 375 432 41,100  Level Minneapolis Center
06:29PM 40.5744 -99.2628 281° West 375 432 41,100  Level Minneapolis Center
06:30PM 40.5958 -99.3978 282° West 375 432 41,100 -120 Level Minneapolis Center
06:31PM 40.6061 -99.4792 279° West 373 429 41,000 -360 Descending Denver Center
06:32PM 40.6256 -99.6169 281° West 379 436 40,600 -480 Descending Denver Center
06:33PM 40.6497 -99.7844 281° West 386 444 40,100 -300 Descending Denver Center
06:34PM 40.6703 -99.9286 281° West 383 441 40,100  Level Denver Center
06:35PM 40.6886 -100.0600 280° West 380 437 40,100  Level Denver Center
06:36PM 40.7100 -100.2125 281° West 379 436 40,100  Level Denver Center
06:37PM 40.7281 -100.3422 280° West 377 434 40,100  Level Denver Center
06:38PM 40.7461 -100.4728 280° West 378 435 40,100  Level Denver Center
06:39PM 40.7667 -100.6244 280° West 376 433 40,100  Level Denver Center
06:40PM 40.7853 -100.7675 280° West 376 433 40,100  Level Denver Center
06:41PM 40.8033 -100.8950 281° West 382 440 40,100  Level Denver Center
06:42PM 40.8239 -101.0461 280° West 374 430 40,100  Level Denver Center
06:43PM 40.8408 -101.1769 280° West 375 432 40,100  Level Denver Center
06:44PM 40.8603 -101.3269 280° West 373 429 40,100  Level Denver Center
06:45PM 40.8769 -101.4556 280° West 374 430 40,100  Level Denver Center
06:47PM 40.8950 -101.6064 279° West 372 428 40,100  Level Denver Center
06:48PM 40.9150 -101.7567 280° West 373 429 40,100  Level Denver Center
06:49PM 40.9292 -101.8633 280° West 371 427 40,100  Level Denver Center
06:50PM 40.9503 -102.0350 279° West 370 426 40,100  Level Denver Center
06:51PM 40.9694 -102.1853 280° West 372 428 40,100  Level Denver Center
06:52PM 40.9839 -102.3139 279° West 371 427 40,100  Level Denver Center
06:53PM 41.0019 -102.4647 279° West 371 427 40,100  Level Denver Center
06:54PM 41.0189 -102.5947 280° West 374 430 40,100  Level Denver Center
06:55PM 41.0333 -102.7256 278° West 376 433 40,100  Level Denver Center
06:56PM 41.0494 -102.8789 278° West 376 433 40,100  Level Denver Center
06:57PM 41.0647 -103.0075 279° West 378 435 40,100  Level Denver Center
06:58PM 41.0833 -103.1592 279° West 374 430 40,100  Level Denver Center
06:59PM 41.0961 -103.2889 277° West 371 427 40,100  Level Denver Center
07:00PM 41.1139 -103.4411 279° West 374 430 40,100  Level Denver Center
07:01PM 41.1286 -103.5722 279° West 376 433 40,100  Level Denver Center
07:02PM 41.1444 -103.7275 278° West 380 437 40,100  Level Denver Center
07:03PM 41.1583 -103.8592 278° West 378 435 40,100  Level Denver Center
07:04PM 41.1731 -103.9933 278° West 382 440 40,100  Level Denver Center
07:05PM 41.1906 -104.1489 279° West 382 440 40,100  Level Denver Center
07:06PM 41.2036 -104.2839 277° West 384 442 40,100  Level Denver Center
07:07PM 41.2192 -104.4425 277° West 389 448 40,100  Level Denver Center
07:08PM 41.2303 -104.5553 277° West 388 447 40,100  Level Denver Center
07:09PM 41.2486 -104.7331 278° West 382 440 40,100  Level Denver Center
07:10PM 41.2617 -104.8681 277° West 383 441 40,100  Level Denver Center
07:11PM 41.2772 -105.0222 278° West 380 437 40,100  Level Denver Center
07:12PM 41.2903 -105.1589 277° West 384 442 40,100  Level Denver Center
07:13PM 41.3025 -105.2917 277° West 380 437 40,100  Level Denver Center
07:14PM 41.3169 -105.4489 277° West 385 443 40,100  Level Denver Center
07:15PM 41.3289 -105.5828 277° West 383 441 40,100  Level Denver Center
07:17PM 41.3433 -105.7414 277° West 383 441 40,100  Level Denver Center
07:18PM 41.3544 -105.8778 276° West 387 445 40,100  Level Denver Center
07:19PM 41.3689 -106.0350 277° West 385 443 40,100  Level Denver Center
07:20PM 41.3806 -106.1717 277° West 387 445 40,100  Level Denver Center
07:21PM 41.3956 -106.3319 277° West 391 450 40,100  Level Denver Center
07:22PM 41.4067 -106.4681 276° West 388 447 40,100  Level Denver Center
07:23PM 41.4194 -106.6181 277° West 388 447 40,100  Level Denver Center
07:24PM 41.4297 -106.7547 276° West 390 449 40,100  Level Denver Center
07:25PM 41.4433 -106.9169 276° West 394 453 40,100  Level Denver Center
07:26PM 41.4533 -107.0542 276° West 392 451 40,100  Level Denver Center
07:27PM 41.4661 -107.2147 276° West 391 450 40,100  Level Denver Center
07:28PM 41.4767 -107.3536 276° West 393 452 40,100  Level Denver Center
07:29PM 41.4889 -107.5158 276° West 396 456 40,100  Level Denver Center
07:30PM 41.4989 -107.6547 276° West 394 453 40,100  Level Denver Center
07:31PM 41.5131 -107.8403 276° West 395 455 40,100  Level Denver Center
07:33PM 41.5253 -108.0250 275° West 392 451 40,100  Level Denver Center
07:34PM 41.5361 -108.1628 276° West 389 448 40,100  Level Salt Lake Center
07:35PM 41.5458 -108.3261 275° West 393 452 40,100  Level Salt Lake Center
07:36PM 41.5567 -108.4839 275° West 389 448 40,100  Level Denver Center
07:37PM 41.5664 -108.6444 275° West 390 449 40,100  Level Denver Center
07:38PM 41.5736 -108.7600 275° West 387 445 40,100  Level Salt Lake Center
07:39PM 41.5833 -108.9197 275° West 390 449 40,100  Level Salt Lake Center
07:40PM 41.5928 -109.0564 275° West 392 451 40,100  Level Salt Lake Center
07:41PM 41.6053 -109.2086 276° West 395 455 40,100  Level Salt Lake Center
07:42PM 41.6172 -109.3544 276° West 395 455 40,100  Level Salt Lake Center
07:43PM 41.6289 -109.5156 276° West 393 452 40,100 -300 Level Salt Lake Center
07:44PM 41.6394 -109.6553 276° West 396 456 39,500 -1,080 Descending Salt Lake Center
07:45PM 41.6522 -109.8239 276° West 408 470 37,900 -1,560 Descending Salt Lake Center
07:47PM 41.6753 -110.1417 276° West 416 479 34,800 -1,380 Descending Salt Lake Center
07:48PM 41.6856 -110.2883 275° West 416 479 33,700 -1,080 Descending Salt Lake Center
07:49PM 41.6967 -110.4572 275° West 410 472 32,600 -1,080 Descending Salt Lake Center
07:50PM 41.7075 -110.6006 276° West 406 467 31,600 -1,020 Descending Salt Lake Center
07:51PM 41.7186 -110.7681 275° West 407 468 30,500 -780 Descending Salt Lake Center
07:52PM 41.7306 -110.9183 276° West 422 486 30,100 -480 Descending Salt Lake Center
07:53PM 41.7397 -111.0789 274° West 427 491 29,600 -1,020 Descending Salt Lake Center
07:54PM 41.7494 -111.2389 275° West 432 497 28,100 -1,620 Descending Salt Lake Center
07:55PM 41.7592 -111.3947 275° West 425 489 26,400 -1,620 Descending Salt Lake Center
07:56PM 41.7694 -111.5475 275° West 417 480 24,800 -1,740 Descending Salt Lake Center
07:57PM 41.7792 -111.7236 274° West 401 461 22,900 -1,740 Descending Salt Lake Center
07:58PM 41.7894 -111.8642 276° West 386 444 21,300 -1,560 Descending Salt Lake Center
07:59PM 41.7736 -111.9958 261° West 368 423 19,700 -1,620 Descending Salt Lake Center
08:00PM 41.7442 -112.0408 229° Southwest 345 397 19,000 -720 Descending Salt Lake Center
08:00PM 41.7072 -112.0761 215° Southwest 330 380 19,000  Level Salt Lake Center
08:01PM 41.6525 -112.0783 182° South 336 387 19,000 -540 Level Salt Lake Center
08:01PM 41.6139 -112.0867 189° South 339 390 18,500 -1,500 Descending Salt Lake Center
08:02PM 41.5639 -112.0883 181° South 347 399 17,700 -1,500 Descending Salt Lake Center
08:02PM 41.5203 -112.0997 191° South 336 387 17,000 -1,500 Descending Salt Lake Center
08:03PM 41.4761 -112.1014 182° South 324 373 16,200 -1,740 Descending Salt Lake Center
08:04PM 41.3917 -112.1100 184° South 304 350 14,600 -1,500 Descending Salt Lake Center
08:04PM 41.3372 -112.1192 187° South 296 341 13,700 -1,560 Descending Salt Lake Center
08:05PM 41.2967 -112.1197 181° South 298 343 12,900 -1,500 Descending Salt Lake Center
08:05PM 41.2522 -112.1264 186° South 307 353 12,200 -1,500 Descending Salt Lake Center
08:06PM 41.2083 -112.1297 183° South 315 362 11,400 -1,200 Descending Salt Lake Center
08:06PM 41.1644 -112.1361 186° South 318 366 11,000 -480 Descending Salt Lake Center
08:07PM 41.1264 -112.1406 185° South 323 372 11,000  Level Salt Lake Center
08:07PM 41.0700 -112.1442 183° South 348 400 11,000  Level Salt Lake Center
08:08PM 41.0264 -112.1347 171° South 362 417 11,000  Level Salt Lake Center
08:09PM 40.9572 -112.1189 170° South 337 388 11,000  Level Salt Lake Center
08:09PM 40.9278 -112.1142 173° South 326 375 11,000  Level Salt Lake Center
08:10PM 40.8731 -112.1017 170° South 309 356 11,000  Level Salt Lake Center
08:10PM 40.8517 -112.1000 177° South 307 353 11,000 -120 Level Salt Lake Center
08:11PM 40.7911 -112.0911 174° South 290 334 10,900 -420 Descending Salt Lake Center
08:11PM 40.7697 -112.0881 174° South 271 312 10,600 -1,080 Descending Salt Lake Center
08:12PM 40.7200 -112.0736 168° South 261 300 9,800 -1,200 Descending Salt Lake Center
08:12PM 40.6914 -112.0722 178° South 254 292 9,300 -900 Descending Salt Lake Center
08:13PM 40.6622 -112.0422 142° Southeast 233 268 8,900 -1,020 Descending Salt Lake Center
08:13PM 40.6572 -112.0189 106° East 199 229 8,300 -1,680 Descending Salt Lake Center
08:14PM 40.6736 -111.9764 63° Northeast 206 237 7,200 -1,680 Descending Salt Lake Center
08:15PM 40.7300 -111.9628 10° North 168 193 5,500 -1,440 Descending Salt Lake Center
08:16PM 40.7583 -111.9644 357° North 129 148 4,500 -1,140 Descending Salt Lake Center
08:18PM 40.7833 -111.9667 17° North  Level FlightAware Approximate